Airlie, Virginia
Current Conditions -  °F | °C
As of 6:15 AM on Thursday 23 Oct 2014 (Local Time) from KHWY Reporting Station
Scattered Clouds Scattered Clouds  
Wind Chill: 52°   Ceiling: Unl
Heat Index: 52°   Visibility: 10mi
Dew Point: 46°   Wind: 14mph
Humidity: 82%   Direction: 320°NW
Pressure: 29.92"   Gusts: 22mph
Location:  38.6876°N, 77.819°W
Report Text: KHWY 231015Z AUTO 32012G19KT 10SM SCT075 11/08 A2992 RMK AO2 T01100080
Loading
Personal Weather Stations






























Interactive Weather Map New forecast layout! Learn more

10-Day Weather Forecast

Advertisements
Track Severe Weather on mobile